sensor_id;sensor_type;location;lat;lon;timestamp;pressure;altitude;pressure_sealevel;temperature;humidity
60920;BME280;59039;52.108;19.942;2023-01-27T00:01:19;101023.14;;;1.66;75.51
60920;BME280;59039;52.108;19.942;2023-01-27T00:03:48;101024.41;;;1.66;75.65
60920;BME280;59039;52.108;19.942;2023-01-27T00:06:27;101027.25;;;1.66;75.58
60920;BME280;59039;52.108;19.942;2023-01-27T00:08:58;101023.30;;;1.66;75.53
60920;BME280;59039;52.108;19.942;2023-01-27T00:11:39;101023.17;;;1.66;75.56
60920;BME280;59039;52.108;19.942;2023-01-27T00:14:32;101021.41;;;1.65;75.58
60920;BME280;59039;52.108;19.942;2023-01-27T00:17:22;101022.64;;;1.65;75.47
60920;BME280;59039;52.108;19.942;2023-01-27T00:20:20;101025.18;;;1.65;75.43
60920;BME280;59039;52.108;19.942;2023-01-27T00:22:48;101026.31;;;1.64;75.48
60920;BME280;59039;52.108;19.942;2023-01-27T00:25:16;101021.16;;;1.63;75.50
60920;BME280;59039;52.108;19.942;2023-01-27T00:28:05;101027.48;;;1.62;75.48
60920;BME280;59039;52.108;19.942;2023-01-27T00:30:45;101027.69;;;1.61;75.62
60920;BME280;59039;52.108;19.942;2023-01-27T00:33:13;101027.00;;;1.61;75.56
60920;BME280;59039;52.108;19.942;2023-01-27T00:36:19;101026.67;;;1.60;75.67
60920;BME280;59039;52.108;19.942;2023-01-27T00:38:47;101030.33;;;1.59;75.53
60920;BME280;59039;52.108;19.942;2023-01-27T00:41:25;101033.20;;;1.58;75.64
60920;BME280;59039;52.108;19.942;2023-01-27T00:44:12;101034.09;;;1.59;75.58
60920;BME280;59039;52.108;19.942;2023-01-27T00:46:43;101032.48;;;1.59;75.50
60920;BME280;59039;52.108;19.942;2023-01-27T00:52:13;101031.41;;;1.59;75.52
60920;BME280;59039;52.108;19.942;2023-01-27T00:54:44;101033.75;;;1.58;75.66
60920;BME280;59039;52.108;19.942;2023-01-27T00:57:13;101034.63;;;1.59;75.74
60920;BME280;59039;52.108;19.942;2023-01-27T01:00:02;101030.45;;;1.60;75.72
60920;BME280;59039;52.108;19.942;2023-01-27T01:02:27;101031.52;;;1.60;75.63
60920;BME280;59039;52.108;19.942;2023-01-27T01:04:56;101029.77;;;1.59;75.80
60920;BME280;59039;52.108;19.942;2023-01-27T01:10:20;101028.38;;;1.58;75.74
60920;BME280;59039;52.108;19.942;2023-01-27T01:12:48;101027.71;;;1.58;75.93
60920;BME280;59039;52.108;19.942;2023-01-27T01:18:34;101025.81;;;1.57;75.95
60920;BME280;59039;52.108;19.942;2023-01-27T01:21:20;101021.71;;;1.56;75.97
60920;BME280;59039;52.108;19.942;2023-01-27T01:23:46;101022.77;;;1.56;75.96
60920;BME280;59039;52.108;19.942;2023-01-27T01:26:45;101024.05;;;1.56;76.00
60920;BME280;59039;52.108;19.942;2023-01-27T01:29:23;101023.88;;;1.56;75.98
60920;BME280;59039;52.108;19.942;2023-01-27T01:31:53;101022.18;;;1.54;75.99
60920;BME280;59039;52.108;19.942;2023-01-27T01:34:31;101020.54;;;1.52;76.03
60920;BME280;59039;52.108;19.942;2023-01-27T01:37:07;101022.15;;;1.48;76.13
60920;BME280;59039;52.108;19.942;2023-01-27T01:39:36;101025.55;;;1.44;76.04
60920;BME280;59039;52.108;19.942;2023-01-27T01:42:06;101028.83;;;1.43;76.17
60920;BME280;59039;52.108;19.942;2023-01-27T01:44:41;101030.30;;;1.42;76.16
60920;BME280;59039;52.108;19.942;2023-01-27T01:47:17;101029.73;;;1.43;76.28
60920;BME280;59039;52.108;19.942;2023-01-27T01:52:50;101042.21;;;1.40;76.24
60920;BME280;59039;52.108;19.942;2023-01-27T01:55:20;101044.02;;;1.39;76.33
60920;BME280;59039;52.108;19.942;2023-01-27T01:57:45;101042.77;;;1.40;76.31
60920;BME280;59039;52.108;19.942;2023-01-27T02:03:03;101040.23;;;1.37;76.40
60920;BME280;59039;52.108;19.942;2023-01-27T02:05:32;101040.33;;;1.35;76.51
60920;BME280;59039;52.108;19.942;2023-01-27T02:10:27;101035.14;;;1.32;76.58
60920;BME280;59039;52.108;19.942;2023-01-27T02:12:58;101037.11;;;1.32;76.71
60920;BME280;59039;52.108;19.942;2023-01-27T02:15:25;101032.37;;;1.30;76.60
60920;BME280;59039;52.108;19.942;2023-01-27T02:20:57;101031.76;;;1.29;76.71
60920;BME280;59039;52.108;19.942;2023-01-27T02:23:54;101033.71;;;1.29;76.85
60920;BME280;59039;52.108;19.942;2023-01-27T02:26:50;101033.52;;;1.29;76.89
60920;BME280;59039;52.108;19.942;2023-01-27T02:29:19;101036.27;;;1.31;76.96
60920;BME280;59039;52.108;19.942;2023-01-27T02:31:58;101035.85;;;1.32;76.99
60920;BME280;59039;52.108;19.942;2023-01-27T02:34:33;101036.86;;;1.33;76.93
60920;BME280;59039;52.108;19.942;2023-01-27T02:37:06;101039.34;;;1.34;76.78
60920;BME280;59039;52.108;19.942;2023-01-27T02:39:53;101038.96;;;1.34;76.90
60920;BME280;59039;52.108;19.942;2023-01-27T02:42:21;101037.38;;;1.34;76.71
60920;BME280;59039;52.108;19.942;2023-01-27T02:44:47;101034.70;;;1.34;76.74
60920;BME280;59039;52.108;19.942;2023-01-27T02:50:34;101041.80;;;1.31;76.88
60920;BME280;59039;52.108;19.942;2023-01-27T02:53:02;101036.19;;;1.29;76.77
60920;BME280;59039;52.108;19.942;2023-01-27T02:55:38;101034.60;;;1.29;76.90
60920;BME280;59039;52.108;19.942;2023-01-27T02:58:03;101031.27;;;1.28;76.97
60920;BME280;59039;52.108;19.942;2023-01-27T03:00:32;101033.52;;;1.29;77.07
60920;BME280;59039;52.108;19.942;2023-01-27T03:03:01;101035.11;;;1.29;77.12
60920;BME280;59039;52.108;19.942;2023-01-27T03:05:39;101035.29;;;1.29;77.19
60920;BME280;59039;52.108;19.942;2023-01-27T03:10:59;101045.88;;;1.31;77.18
60920;BME280;59039;52.108;19.942;2023-01-27T03:13:27;101047.82;;;1.32;77.13
60920;BME280;59039;52.108;19.942;2023-01-27T03:16:02;101046.36;;;1.33;77.17
60920;BME280;59039;52.108;19.942;2023-01-27T03:21:02;101048.48;;;1.33;77.20
60920;BME280;59039;52.108;19.942;2023-01-27T03:23:28;101047.17;;;1.34;77.23
60920;BME280;59039;52.108;19.942;2023-01-27T03:26:14;101048.17;;;1.36;77.21
60920;BME280;59039;52.108;19.942;2023-01-27T03:28:41;101049.05;;;1.36;77.09
60920;BME280;59039;52.108;19.942;2023-01-27T03:31:15;101049.38;;;1.37;77.19
60920;BME280;59039;52.108;19.942;2023-01-27T03:33:52;101052.20;;;1.37;77.12
60920;BME280;59039;52.108;19.942;2023-01-27T03:36:25;101056.61;;;1.38;77.11
60920;BME280;59039;52.108;19.942;2023-01-27T03:38:53;101062.34;;;1.38;77.09
60920;BME280;59039;52.108;19.942;2023-01-27T03:41:18;101059.49;;;1.38;77.11
60920;BME280;59039;52.108;19.942;2023-01-27T03:43:46;101060.76;;;1.37;77.09
60920;BME280;59039;52.108;19.942;2023-01-27T03:46:12;101055.54;;;1.38;77.10
60920;BME280;59039;52.108;19.942;2023-01-27T03:48:58;101057.64;;;1.39;76.98
60920;BME280;59039;52.108;19.942;2023-01-27T03:52:04;101055.49;;;1.39;76.98
60920;BME280;59039;52.108;19.942;2023-01-27T03:55:03;101052.80;;;1.39;76.94
60920;BME280;59039;52.108;19.942;2023-01-27T03:57:30;101050.10;;;1.39;76.92
60920;BME280;59039;52.108;19.942;2023-01-27T04:00:01;101049.34;;;1.41;76.96
60920;BME280;59039;52.108;19.942;2023-01-27T04:02:47;101050.14;;;1.42;76.99
60920;BME280;59039;52.108;19.942;2023-01-27T04:05:33;101050.64;;;1.43;76.98
60920;BME280;59039;52.108;19.942;2023-01-27T04:10:49;101052.77;;;1.43;76.92
60920;BME280;59039;52.108;19.942;2023-01-27T04:13:26;101055.43;;;1.43;76.92
60920;BME280;59039;52.108;19.942;2023-01-27T04:15:55;101054.20;;;1.43;76.91
60920;BME280;59039;52.108;19.942;2023-01-27T04:18:44;101059.44;;;1.42;76.88
60920;BME280;59039;52.108;19.942;2023-01-27T04:24:09;101067.17;;;1.41;76.85
60920;BME280;59039;52.108;19.942;2023-01-27T04:27:03;101065.75;;;1.41;76.81
60920;BME280;59039;52.108;19.942;2023-01-27T04:29:33;101069.92;;;1.39;76.89
60920;BME280;59039;52.108;19.942;2023-01-27T04:32:28;101070.08;;;1.36;76.79
60920;BME280;59039;52.108;19.942;2023-01-27T04:35:15;101074.09;;;1.35;76.82
60920;BME280;59039;52.108;19.942;2023-01-27T04:37:52;101075.05;;;1.33;76.89
60920;BME280;59039;52.108;19.942;2023-01-27T04:40:20;101077.58;;;1.33;76.93
60920;BME280;59039;52.108;19.942;2023-01-27T04:42:45;101083.98;;;1.30;77.11
60920;BME280;59039;52.108;19.942;2023-01-27T04:45:31;101086.01;;;1.29;77.08
60920;BME280;59039;52.108;19.942;2023-01-27T04:47:59;101092.98;;;1.25;77.22
60920;BME280;59039;52.108;19.942;2023-01-27T04:50:24;101093.80;;;1.23;77.35
60920;BME280;59039;52.108;19.942;2023-01-27T04:53:12;101096.27;;;1.20;77.32
60920;BME280;59039;52.108;19.942;2023-01-27T04:58:32;101094.98;;;1.10;77.51
60920;BME280;59039;52.108;19.942;2023-01-27T05:01:18;101091.16;;;1.05;77.69
60920;BME280;59039;52.108;19.942;2023-01-27T05:03:47;101097.80;;;1.00;78.03
60920;BME280;59039;52.108;19.942;2023-01-27T05:06:15;101097.24;;;0.97;77.97
60920;BME280;59039;52.108;19.942;2023-01-27T05:09:12;101100.15;;;0.93;78.10
60920;BME280;59039;52.108;19.942;2023-01-27T05:11:48;101102.89;;;0.88;78.47
60920;BME280;59039;52.108;19.942;2023-01-27T05:14:13;101103.08;;;0.84;78.33
60920;BME280;59039;52.108;19.942;2023-01-27T05:16:39;101109.55;;;0.79;78.33
60920;BME280;59039;52.108;19.942;2023-01-27T05:19:04;101113.21;;;0.74;78.49
60920;BME280;59039;52.108;19.942;2023-01-27T05:21:32;101118.46;;;0.69;78.55
60920;BME280;59039;52.108;19.942;2023-01-27T05:24:13;101118.48;;;0.65;79.25
60920;BME280;59039;52.108;19.942;2023-01-27T05:26:42;101116.20;;;0.64;79.75
60920;BME280;59039;52.108;19.942;2023-01-27T05:29:10;101117.63;;;0.64;79.78
60920;BME280;59039;52.108;19.942;2023-01-27T05:31:36;101118.20;;;0.63;79.41
60920;BME280;59039;52.108;19.942;2023-01-27T05:36:37;101117.38;;;0.61;80.10
60920;BME280;59039;52.108;19.942;2023-01-27T05:39:02;101122.76;;;0.61;79.87
60920;BME280;59039;52.108;19.942;2023-01-27T05:41:45;101118.55;;;0.59;79.76
60920;BME280;59039;52.108;19.942;2023-01-27T05:44:25;101117.39;;;0.57;80.15
60920;BME280;59039;52.108;19.942;2023-01-27T05:46:54;101118.47;;;0.57;80.46
60920;BME280;59039;52.108;19.942;2023-01-27T05:49:25;101115.73;;;0.58;80.77
60920;BME280;59039;52.108;19.942;2023-01-27T05:52:03;101120.14;;;0.60;80.60
60920;BME280;59039;52.108;19.942;2023-01-27T05:54:31;101124.35;;;0.61;80.60
60920;BME280;59039;52.108;19.942;2023-01-27T05:57:02;101124.55;;;0.60;80.58
60920;BME280;59039;52.108;19.942;2023-01-27T05:59:31;101126.56;;;0.60;80.90
60920;BME280;59039;52.108;19.942;2023-01-27T06:02:05;101129.35;;;0.61;81.00
60920;BME280;59039;52.108;19.942;2023-01-27T06:04:36;101128.94;;;0.62;80.73
60920;BME280;59039;52.108;19.942;2023-01-27T06:07:04;101135.23;;;0.61;80.84
60920;BME280;59039;52.108;19.942;2023-01-27T06:09:30;101136.11;;;0.61;81.05
60920;BME280;59039;52.108;19.942;2023-01-27T06:12:25;101138.86;;;0.63;81.14
60920;BME280;59039;52.108;19.942;2023-01-27T06:14:59;101143.08;;;0.65;81.57
60920;BME280;59039;52.108;19.942;2023-01-27T06:17:28;101144.61;;;0.67;81.93
60920;BME280;59039;52.108;19.942;2023-01-27T06:20:05;101147.04;;;0.68;82.22
60920;BME280;59039;52.108;19.942;2023-01-27T06:22:33;101148.16;;;0.71;82.45
60920;BME280;59039;52.108;19.942;2023-01-27T06:25:18;101150.88;;;0.73;82.16
60920;BME280;59039;52.108;19.942;2023-01-27T06:27:54;101154.13;;;0.76;82.39
60920;BME280;59039;52.108;19.942;2023-01-27T06:33:25;101158.17;;;0.80;82.79
60920;BME280;59039;52.108;19.942;2023-01-27T06:35:49;101161.23;;;0.84;82.80
60920;BME280;59039;52.108;19.942;2023-01-27T06:38:38;101161.34;;;0.86;82.55
60920;BME280;59039;52.108;19.942;2023-01-27T06:41:04;101163.23;;;0.87;82.72
60920;BME280;59039;52.108;19.942;2023-01-27T06:43:32;101162.98;;;0.89;82.31
60920;BME280;59039;52.108;19.942;2023-01-27T06:46:01;101162.22;;;0.90;82.38
60920;BME280;59039;52.108;19.942;2023-01-27T06:48:34;101159.84;;;0.91;82.31
60920;BME280;59039;52.108;19.942;2023-01-27T06:51:11;101160.35;;;0.91;82.31
60920;BME280;59039;52.108;19.942;2023-01-27T06:53:59;101161.64;;;0.94;82.15
60920;BME280;59039;52.108;19.942;2023-01-27T06:56:28;101164.63;;;0.95;82.16
60920;BME280;59039;52.108;19.942;2023-01-27T06:58:55;101169.17;;;0.97;82.29
60920;BME280;59039;52.108;19.942;2023-01-27T07:01:23;101172.86;;;0.98;82.31
60920;BME280;59039;52.108;19.942;2023-01-27T07:03:55;101169.81;;;0.98;82.28
60920;BME280;59039;52.108;19.942;2023-01-27T07:06:41;101169.92;;;1.00;81.86
60920;BME280;59039;52.108;19.942;2023-01-27T07:09:06;101169.14;;;1.01;81.68
60920;BME280;59039;52.108;19.942;2023-01-27T07:11:54;101166.84;;;1.01;81.87
60920;BME280;59039;52.108;19.942;2023-01-27T07:14:29;101167.86;;;1.02;81.80
60920;BME280;59039;52.108;19.942;2023-01-27T07:17:06;101171.23;;;1.02;81.71
60920;BME280;59039;52.108;19.942;2023-01-27T07:19:51;101169.62;;;1.02;81.83
60920;BME280;59039;52.108;19.942;2023-01-27T07:22:19;101166.23;;;1.02;81.82
60920;BME280;59039;52.108;19.942;2023-01-27T07:24:47;101163.02;;;1.02;82.07
60920;BME280;59039;52.108;19.942;2023-01-27T07:27:24;101165.82;;;1.03;82.26
60920;BME280;59039;52.108;19.942;2023-01-27T07:29:53;101168.61;;;1.05;82.11
60920;BME280;59039;52.108;19.942;2023-01-27T07:32:23;101174.77;;;1.06;81.80
60920;BME280;59039;52.108;19.942;2023-01-27T07:34:59;101176.23;;;1.06;81.86
60920;BME280;59039;52.108;19.942;2023-01-27T07:40:30;101173.69;;;1.07;82.19
60920;BME280;59039;52.108;19.942;2023-01-27T07:42:58;101173.95;;;1.09;82.14
60920;BME280;59039;52.108;19.942;2023-01-27T07:45:30;101175.08;;;1.08;82.02
60920;BME280;59039;52.108;19.942;2023-01-27T07:48:19;101177.52;;;1.09;81.72
60920;BME280;59039;52.108;19.942;2023-01-27T07:50:47;101179.43;;;1.10;81.72
60920;BME280;59039;52.108;19.942;2023-01-27T07:53:28;101178.92;;;1.09;81.42
60920;BME280;59039;52.108;19.942;2023-01-27T07:55:57;101180.93;;;1.08;81.67
60920;BME280;59039;52.108;19.942;2023-01-27T07:58:45;101182.88;;;1.09;81.72
60920;BME280;59039;52.108;19.942;2023-01-27T08:01:16;101183.20;;;1.09;81.49
60920;BME280;59039;52.108;19.942;2023-01-27T08:03:44;101183.05;;;1.09;81.87
60920;BME280;59039;52.108;19.942;2023-01-27T08:06:12;101189.27;;;1.09;81.64
60920;BME280;59039;52.108;19.942;2023-01-27T08:08:53;101190.23;;;1.08;81.25
60920;BME280;59039;52.108;19.942;2023-01-27T08:11:21;101191.66;;;1.04;81.49
60920;BME280;59039;52.108;19.942;2023-01-27T08:13:49;101196.25;;;1.01;81.29
60920;BME280;59039;52.108;19.942;2023-01-27T08:16:28;101196.86;;;0.96;81.49
60920;BME280;59039;52.108;19.942;2023-01-27T08:18:53;101195.20;;;0.94;81.61
60920;BME280;59039;52.108;19.942;2023-01-27T08:21:24;101196.84;;;0.93;81.55
60920;BME280;59039;52.108;19.942;2023-01-27T08:23:52;101195.09;;;0.92;81.58
60920;BME280;59039;52.108;19.942;2023-01-27T08:26:22;101198.96;;;0.90;81.52
60920;BME280;59039;52.108;19.942;2023-01-27T08:28:59;101202.91;;;0.85;81.54
60920;BME280;59039;52.108;19.942;2023-01-27T08:31:33;101204.33;;;0.82;81.56
60920;BME280;59039;52.108;19.942;2023-01-27T08:34:09;101207.36;;;0.78;82.04
60920;BME280;59039;52.108;19.942;2023-01-27T08:36:49;101210.89;;;0.79;82.18
60920;BME280;59039;52.108;19.942;2023-01-27T08:39:14;101207.11;;;0.79;82.00
60920;BME280;59039;52.108;19.942;2023-01-27T08:41:49;101208.07;;;0.78;82.05
60920;BME280;59039;52.108;19.942;2023-01-27T08:44:17;101212.53;;;0.78;82.10
60920;BME280;59039;52.108;19.942;2023-01-27T08:46:45;101215.02;;;0.78;82.11
60920;BME280;59039;52.108;19.942;2023-01-27T08:52:02;101220.64;;;0.77;82.30
60920;BME280;59039;52.108;19.942;2023-01-27T08:54:30;101220.71;;;0.75;82.53
60920;BME280;59039;52.108;19.942;2023-01-27T08:56:58;101219.86;;;0.74;82.20
60920;BME280;59039;52.108;19.942;2023-01-27T08:59:24;101222.52;;;0.74;82.29
60920;BME280;59039;52.108;19.942;2023-01-27T09:01:54;101228.18;;;0.75;82.44
60920;BME280;59039;52.108;19.942;2023-01-27T09:04:21;101232.74;;;0.77;82.73
60920;BME280;59039;52.108;19.942;2023-01-27T09:06:47;101234.58;;;0.79;82.20
60920;BME280;59039;52.108;19.942;2023-01-27T09:09:14;101231.69;;;0.77;82.31
60920;BME280;59039;52.108;19.942;2023-01-27T09:11:49;101235.50;;;0.75;82.14
60920;BME280;59039;52.108;19.942;2023-01-27T09:14:22;101232.92;;;0.73;82.34
60920;BME280;59039;52.108;19.942;2023-01-27T09:16:47;101235.08;;;0.73;82.28
60920;BME280;59039;52.108;19.942;2023-01-27T09:19:16;101237.25;;;0.72;82.18
60920;BME280;59039;52.108;19.942;2023-01-27T09:21:42;101238.77;;;0.70;82.16
60920;BME280;59039;52.108;19.942;2023-01-27T09:27:04;101234.52;;;0.70;82.55
60920;BME280;59039;52.108;19.942;2023-01-27T09:29:39;101233.46;;;0.73;82.77
60920;BME280;59039;52.108;19.942;2023-01-27T09:32:11;101234.73;;;0.77;82.59
60920;BME280;59039;52.108;19.942;2023-01-27T09:34:41;101236.39;;;0.79;82.30
60920;BME280;59039;52.108;19.942;2023-01-27T09:37:20;101237.44;;;0.79;82.63
60920;BME280;59039;52.108;19.942;2023-01-27T09:39:52;101237.70;;;0.81;82.32
60920;BME280;59039;52.108;19.942;2023-01-27T09:45:40;101240.59;;;0.85;82.22
60920;BME280;59039;52.108;19.942;2023-01-27T09:51:38;101241.02;;;0.91;82.24
60920;BME280;59039;52.108;19.942;2023-01-27T10:14:40;101243.14;;;1.28;80.97
60920;BME280;59039;52.108;19.942;2023-01-27T10:28:45;101253.11;;;1.51;80.27
60920;BME280;59039;52.108;19.942;2023-01-27T10:31:26;101257.39;;;1.51;80.36
60920;BME280;59039;52.108;19.942;2023-01-27T10:33:56;101258.19;;;1.53;80.10
60920;BME280;59039;52.108;19.942;2023-01-27T10:36:38;101260.09;;;1.57;80.05
60920;BME280;59039;52.108;19.942;2023-01-27T10:44:47;101261.96;;;1.66;79.86
60920;BME280;59039;52.108;19.942;2023-01-27T10:47:29;101262.37;;;1.69;79.74
60920;BME280;59039;52.108;19.942;2023-01-27T10:50:06;101262.39;;;1.69;78.71
60920;BME280;59039;52.108;19.942;2023-01-27T10:52:40;101262.19;;;1.73;78.77
60920;BME280;59039;52.108;19.942;2023-01-27T10:55:26;101259.95;;;1.75;78.96
60920;BME280;59039;52.108;19.942;2023-01-27T10:58:09;101257.52;;;1.77;79.12
60920;BME280;59039;52.108;19.942;2023-01-27T11:00:39;101255.02;;;1.77;78.80
60920;BME280;59039;52.108;19.942;2023-01-27T11:03:14;101254.08;;;1.78;78.35
60920;BME280;59039;52.108;19.942;2023-01-27T11:05:48;101252.96;;;1.82;78.14
60920;BME280;59039;52.108;19.942;2023-01-27T11:08:33;101251.45;;;1.87;78.10
60920;BME280;59039;52.108;19.942;2023-01-27T11:11:02;101251.56;;;1.92;77.91
60920;BME280;59039;52.108;19.942;2023-01-27T11:13:30;101249.75;;;1.96;77.88
60920;BME280;59039;52.108;19.942;2023-01-27T11:15:59;101245.62;;;2.00;78.13
60920;BME280;59039;52.108;19.942;2023-01-27T11:18:27;101242.02;;;2.00;77.03
60920;BME280;59039;52.108;19.942;2023-01-27T11:20:56;101240.19;;;2.01;77.06
60920;BME280;59039;52.108;19.942;2023-01-27T11:23:29;101235.83;;;2.02;77.71
60920;BME280;59039;52.108;19.942;2023-01-27T11:32:24;101226.88;;;1.96;77.15
60920;BME280;59039;52.108;19.942;2023-01-27T11:35:04;101224.63;;;1.94;76.18
60920;BME280;59039;52.108;19.942;2023-01-27T11:37:34;101227.23;;;1.92;76.77
60920;BME280;59039;52.108;19.942;2023-01-27T11:40:01;101230.27;;;1.93;76.51
60920;BME280;59039;52.108;19.942;2023-01-27T11:42:31;101229.70;;;1.93;76.87
60920;BME280;59039;52.108;19.942;2023-01-27T11:45:00;101228.23;;;1.94;76.84
60920;BME280;59039;52.108;19.942;2023-01-27T11:47:37;101230.66;;;1.95;76.88
60920;BME280;59039;52.108;19.942;2023-01-27T11:50:04;101233.48;;;1.96;77.00
60920;BME280;59039;52.108;19.942;2023-01-27T11:52:40;101228.19;;;1.95;77.36
60920;BME280;59039;52.108;19.942;2023-01-27T11:57:42;101226.72;;;1.95;76.53
60920;BME280;59039;52.108;19.942;2023-01-27T12:02:53;101228.72;;;2.02;75.56
60920;BME280;59039;52.108;19.942;2023-01-27T12:05:37;101232.39;;;2.00;75.62
60920;BME280;59039;52.108;19.942;2023-01-27T12:08:08;101230.61;;;2.00;75.80
60920;BME280;59039;52.108;19.942;2023-01-27T12:10:38;101233.79;;;2.00;75.90
60920;BME280;59039;52.108;19.942;2023-01-27T12:13:15;101234.83;;;2.01;76.46
60920;BME280;59039;52.108;19.942;2023-01-27T12:15:55;101230.55;;;2.00;75.76
60920;BME280;59039;52.108;19.942;2023-01-27T12:18:23;101231.23;;;1.98;75.79
60920;BME280;59039;52.108;19.942;2023-01-27T12:21:00;101232.54;;;2.00;76.61
60920;BME280;59039;52.108;19.942;2023-01-27T12:23:33;101232.39;;;2.03;77.08
60920;BME280;59039;52.108;19.942;2023-01-27T12:26:06;101233.73;;;2.05;76.29
60920;BME280;59039;52.108;19.942;2023-01-27T12:28:51;101234.21;;;2.06;76.03
60920;BME280;59039;52.108;19.942;2023-01-27T12:31:29;101235.08;;;2.03;75.89
60920;BME280;59039;52.108;19.942;2023-01-27T12:34:02;101233.97;;;2.04;76.31
60920;BME280;59039;52.108;19.942;2023-01-27T12:36:39;101235.23;;;2.07;76.85
60920;BME280;59039;52.108;19.942;2023-01-27T12:41:51;101243.77;;;2.12;76.90
60920;BME280;59039;52.108;19.942;2023-01-27T12:44:19;101236.59;;;2.15;76.93
60920;BME280;59039;52.108;19.942;2023-01-27T12:47:20;101239.42;;;2.19;77.00
60920;BME280;59039;52.108;19.942;2023-01-27T12:49:50;101240.88;;;2.22;77.04
60920;BME280;59039;52.108;19.942;2023-01-27T12:52:20;101237.95;;;2.23;76.81
60920;BME280;59039;52.108;19.942;2023-01-27T12:54:51;101240.31;;;2.26;76.92
60920;BME280;59039;52.108;19.942;2023-01-27T12:57:19;101240.52;;;2.29;77.12
60920;BME280;59039;52.108;19.942;2023-01-27T12:59:56;101241.27;;;2.25;76.51
60920;BME280;59039;52.108;19.942;2023-01-27T13:02:38;101242.27;;;2.20;76.76
60920;BME280;59039;52.108;19.942;2023-01-27T13:05:05;101236.43;;;2.15;77.01
60920;BME280;59039;52.108;19.942;2023-01-27T13:07:39;101244.73;;;2.14;77.04
60920;BME280;59039;52.108;19.942;2023-01-27T13:10:18;101239.98;;;2.12;77.33
60920;BME280;59039;52.108;19.942;2023-01-27T13:12:55;101242.70;;;2.11;77.01
60920;BME280;59039;52.108;19.942;2023-01-27T13:15:25;101244.77;;;2.09;77.26
60920;BME280;59039;52.108;19.942;2023-01-27T13:17:55;101243.55;;;2.08;77.71
60920;BME280;59039;52.108;19.942;2023-01-27T13:20:28;101243.05;;;2.08;77.20
60920;BME280;59039;52.108;19.942;2023-01-27T13:26:13;101242.88;;;2.08;77.61
60920;BME280;59039;52.108;19.942;2023-01-27T13:28:54;101243.52;;;2.06;76.82
60920;BME280;59039;52.108;19.942;2023-01-27T13:31:56;101242.56;;;2.03;77.13
60920;BME280;59039;52.108;19.942;2023-01-27T13:34:45;101241.67;;;2.03;77.16
60920;BME280;59039;52.108;19.942;2023-01-27T13:37:31;101241.80;;;2.04;77.02
60920;BME280;59039;52.108;19.942;2023-01-27T13:40:32;101243.58;;;2.05;77.19
60920;BME280;59039;52.108;19.942;2023-01-27T13:43:19;101244.55;;;2.07;77.32
60920;BME280;59039;52.108;19.942;2023-01-27T13:46:03;101246.67;;;2.07;77.16
60920;BME280;59039;52.108;19.942;2023-01-27T13:48:55;101249.56;;;2.06;76.88
60920;BME280;59039;52.108;19.942;2023-01-27T13:51:25;101254.54;;;2.07;77.23
60920;BME280;59039;52.108;19.942;2023-01-27T13:54:02;101256.48;;;2.07;77.30
60920;BME280;59039;52.108;19.942;2023-01-27T13:56:59;101258.46;;;2.04;76.90
60920;BME280;59039;52.108;19.942;2023-01-27T13:59:40;101260.05;;;2.01;77.07
60920;BME280;59039;52.108;19.942;2023-01-27T14:02:36;101262.91;;;2.01;77.29
60920;BME280;59039;52.108;19.942;2023-01-27T14:05:27;101264.44;;;2.02;77.35
60920;BME280;59039;52.108;19.942;2023-01-27T14:16:14;101264.98;;;1.92;77.25
60920;BME280;59039;52.108;19.942;2023-01-27T14:18:48;101263.88;;;1.89;77.42
60920;BME280;59039;52.108;19.942;2023-01-27T14:21:37;101263.89;;;1.88;77.66
60920;BME280;59039;52.108;19.942;2023-01-27T14:29:50;101268.86;;;1.93;77.94
60920;BME280;59039;52.108;19.942;2023-01-27T14:32:33;101273.28;;;1.94;78.11
60920;BME280;59039;52.108;19.942;2023-01-27T14:35:30;101271.70;;;1.97;78.22
60920;BME280;59039;52.108;19.942;2023-01-27T14:41:09;101272.74;;;1.97;78.38
60920;BME280;59039;52.108;19.942;2023-01-27T14:49:38;101276.33;;;2.00;78.22
60920;BME280;59039;52.108;19.942;2023-01-27T14:52:25;101276.83;;;1.98;78.19
60920;BME280;59039;52.108;19.942;2023-01-27T14:55:24;101275.38;;;1.98;78.21
60920;BME280;59039;52.108;19.942;2023-01-27T14:58:00;101274.10;;;1.99;78.35
60920;BME280;59039;52.108;19.942;2023-01-27T15:01:26;101270.09;;;2.00;78.32
60920;BME280;59039;52.108;19.942;2023-01-27T15:07:28;101270.89;;;1.98;78.07
60920;BME280;59039;52.108;19.942;2023-01-27T15:09:49;101274.23;;;1.96;78.11
60920;BME280;59039;52.108;19.942;2023-01-27T15:26:29;101281.40;;;1.75;78.38
60920;BME280;59039;52.108;19.942;2023-01-27T15:28:56;101282.79;;;1.72;78.42
60920;BME280;59039;52.108;19.942;2023-01-27T15:31:25;101282.31;;;1.71;78.53
60920;BME280;59039;52.108;19.942;2023-01-27T15:42:10;101291.70;;;1.69;78.71
60920;BME280;59039;52.108;19.942;2023-01-27T15:45:00;101287.25;;;1.68;78.61
60920;BME280;59039;52.108;19.942;2023-01-27T15:47:30;101295.65;;;1.68;78.64
60920;BME280;59039;52.108;19.942;2023-01-27T15:50:18;101290.14;;;1.67;78.57
60920;BME280;59039;52.108;19.942;2023-01-27T15:52:50;101293.09;;;1.65;78.41
60920;BME280;59039;52.108;19.942;2023-01-27T15:55:23;101298.56;;;1.60;78.50
60920;BME280;59039;52.108;19.942;2023-01-27T15:57:55;101298.54;;;1.57;78.59
60920;BME280;59039;52.108;19.942;2023-01-27T16:00:47;101300.55;;;1.56;78.71
60920;BME280;59039;52.108;19.942;2023-01-27T16:03:33;101299.77;;;1.54;78.74
60920;BME280;59039;52.108;19.942;2023-01-27T16:06:04;101300.90;;;1.53;78.92
60920;BME280;59039;52.108;19.942;2023-01-27T16:08:39;101304.84;;;1.52;79.12
60920;BME280;59039;52.108;19.942;2023-01-27T16:17:01;101305.09;;;1.47;79.32
60920;BME280;59039;52.108;19.942;2023-01-27T16:19:39;101299.70;;;1.47;79.46